sensor_id;sensor_type;location;lat;lon;timestamp;P1;durP1;ratioP1;P2;durP2;ratioP2
83121;SDS011;73002;47.238;9.006;2023-12-20T00:02:19;14.05;;;10.40;;
83121;SDS011;73002;47.238;9.006;2023-12-20T00:04:45;15.80;;;10.95;;
83121;SDS011;73002;47.238;9.006;2023-12-20T00:07:10;15.55;;;10.98;;
83121;SDS011;73002;47.238;9.006;2023-12-20T00:09:35;15.65;;;10.85;;
83121;SDS011;73002;47.238;9.006;2023-12-20T00:12:01;15.38;;;10.00;;
83121;SDS011;73002;47.238;9.006;2023-12-20T00:14:26;14.45;;;10.20;;
83121;SDS011;73002;47.238;9.006;2023-12-20T00:16:52;15.55;;;10.60;;
83121;SDS011;73002;47.238;9.006;2023-12-20T00:19:17;15.52;;;10.85;;
83121;SDS011;73002;47.238;9.006;2023-12-20T00:21:44;15.30;;;10.75;;
83121;SDS011;73002;47.238;9.006;2023-12-20T00:24:09;15.32;;;11.10;;
83121;SDS011;73002;47.238;9.006;2023-12-20T00:26:35;13.63;;;10.52;;
83121;SDS011;73002;47.238;9.006;2023-12-20T00:29:00;13.82;;;10.48;;
83121;SDS011;73002;47.238;9.006;2023-12-20T00:31:26;15.40;;;10.27;;
83121;SDS011;73002;47.238;9.006;2023-12-20T00:33:51;13.52;;;10.25;;
83121;SDS011;73002;47.238;9.006;2023-12-20T00:36:17;13.85;;;10.32;;
83121;SDS011;73002;47.238;9.006;2023-12-20T00:38:42;14.40;;;10.35;;
83121;SDS011;73002;47.238;9.006;2023-12-20T00:41:08;16.42;;;10.57;;
83121;SDS011;73002;47.238;9.006;2023-12-20T00:43:33;15.38;;;11.02;;
83121;SDS011;73002;47.238;9.006;2023-12-20T00:46:00;13.80;;;10.30;;
83121;SDS011;73002;47.238;9.006;2023-12-20T00:48:25;14.73;;;9.93;;
83121;SDS011;73002;47.238;9.006;2023-12-20T00:50:55;15.27;;;10.70;;
83121;SDS011;73002;47.238;9.006;2023-12-20T00:53:21;15.40;;;9.90;;
83121;SDS011;73002;47.238;9.006;2023-12-20T00:55:49;14.90;;;10.75;;
83121;SDS011;73002;47.238;9.006;2023-12-20T00:58:15;16.95;;;11.02;;
83121;SDS011;73002;47.238;9.006;2023-12-20T01:00:40;14.18;;;11.10;;
83121;SDS011;73002;47.238;9.006;2023-12-20T01:03:08;15.25;;;10.65;;
83121;SDS011;73002;47.238;9.006;2023-12-20T01:05:33;13.60;;;10.68;;
83121;SDS011;73002;47.238;9.006;2023-12-20T01:07:58;14.82;;;10.57;;
83121;SDS011;73002;47.238;9.006;2023-12-20T01:10:24;16.23;;;10.95;;
83121;SDS011;73002;47.238;9.006;2023-12-20T01:12:53;16.88;;;10.95;;
83121;SDS011;73002;47.238;9.006;2023-12-20T01:15:18;14.77;;;10.55;;
83121;SDS011;73002;47.238;9.006;2023-12-20T01:17:44;15.43;;;10.85;;
83121;SDS011;73002;47.238;9.006;2023-12-20T01:20:09;14.80;;;11.30;;
83121;SDS011;73002;47.238;9.006;2023-12-20T01:22:35;17.48;;;11.20;;
83121;SDS011;73002;47.238;9.006;2023-12-20T01:25:00;15.48;;;10.60;;
83121;SDS011;73002;47.238;9.006;2023-12-20T01:27:27;14.38;;;10.38;;
83121;SDS011;73002;47.238;9.006;2023-12-20T01:29:53;15.35;;;11.13;;
83121;SDS011;73002;47.238;9.006;2023-12-20T01:32:18;16.73;;;11.20;;
83121;SDS011;73002;47.238;9.006;2023-12-20T01:34:43;16.48;;;11.18;;
83121;SDS011;73002;47.238;9.006;2023-12-20T01:37:09;18.77;;;10.98;;
83121;SDS011;73002;47.238;9.006;2023-12-20T01:39:34;16.30;;;11.05;;
83121;SDS011;73002;47.238;9.006;2023-12-20T01:42:00;14.07;;;10.25;;
83121;SDS011;73002;47.238;9.006;2023-12-20T01:44:25;15.43;;;11.05;;
83121;SDS011;73002;47.238;9.006;2023-12-20T01:46:51;15.32;;;10.77;;
83121;SDS011;73002;47.238;9.006;2023-12-20T01:49:18;16.08;;;10.70;;
83121;SDS011;73002;47.238;9.006;2023-12-20T01:51:44;15.25;;;10.27;;
83121;SDS011;73002;47.238;9.006;2023-12-20T01:54:10;13.82;;;10.18;;
83121;SDS011;73002;47.238;9.006;2023-12-20T01:56:36;13.18;;;9.50;;
83121;SDS011;73002;47.238;9.006;2023-12-20T01:59:02;12.55;;;9.10;;
83121;SDS011;73002;47.238;9.006;2023-12-20T02:01:29;11.55;;;8.32;;
83121;SDS011;73002;47.238;9.006;2023-12-20T02:03:55;12.10;;;8.73;;
83121;SDS011;73002;47.238;9.006;2023-12-20T02:06:21;10.18;;;7.65;;
83121;SDS011;73002;47.238;9.006;2023-12-20T02:08:49;10.10;;;7.30;;
83121;SDS011;73002;47.238;9.006;2023-12-20T02:11:15;10.85;;;7.13;;
83121;SDS011;73002;47.238;9.006;2023-12-20T02:13:41;10.52;;;7.45;;
83121;SDS011;73002;47.238;9.006;2023-12-20T02:16:06;9.70;;;6.68;;
83121;SDS011;73002;47.238;9.006;2023-12-20T02:18:32;8.80;;;6.78;;
83121;SDS011;73002;47.238;9.006;2023-12-20T02:20:58;9.07;;;6.68;;
83121;SDS011;73002;47.238;9.006;2023-12-20T02:23:23;8.40;;;6.35;;
83121;SDS011;73002;47.238;9.006;2023-12-20T02:25:49;6.47;;;5.05;;
83121;SDS011;73002;47.238;9.006;2023-12-20T02:28:14;7.35;;;5.20;;
83121;SDS011;73002;47.238;9.006;2023-12-20T02:30:40;5.80;;;3.95;;
83121;SDS011;73002;47.238;9.006;2023-12-20T02:33:07;7.00;;;4.97;;
83121;SDS011;73002;47.238;9.006;2023-12-20T02:35:37;6.43;;;4.63;;
83121;SDS011;73002;47.238;9.006;2023-12-20T02:38:02;7.10;;;5.38;;
83121;SDS011;73002;47.238;9.006;2023-12-20T02:40:28;7.03;;;5.13;;
83121;SDS011;73002;47.238;9.006;2023-12-20T02:42:53;7.78;;;4.90;;
83121;SDS011;73002;47.238;9.006;2023-12-20T02:45:19;6.90;;;4.97;;
83121;SDS011;73002;47.238;9.006;2023-12-20T02:47:46;6.18;;;4.78;;
83121;SDS011;73002;47.238;9.006;2023-12-20T02:50:11;6.05;;;4.55;;
83121;SDS011;73002;47.238;9.006;2023-12-20T02:52:37;7.07;;;4.80;;
83121;SDS011;73002;47.238;9.006;2023-12-20T02:55:02;6.60;;;4.25;;
83121;SDS011;73002;47.238;9.006;2023-12-20T02:57:28;5.30;;;4.28;;
83121;SDS011;73002;47.238;9.006;2023-12-20T02:59:53;5.45;;;4.32;;
83121;SDS011;73002;47.238;9.006;2023-12-20T03:02:19;4.97;;;4.10;;
83121;SDS011;73002;47.238;9.006;2023-12-20T03:04:44;5.90;;;4.03;;
83121;SDS011;73002;47.238;9.006;2023-12-20T03:07:10;5.18;;;3.47;;
83121;SDS011;73002;47.238;9.006;2023-12-20T03:09:39;4.82;;;3.72;;
83121;SDS011;73002;47.238;9.006;2023-12-20T03:12:04;5.18;;;3.83;;
83121;SDS011;73002;47.238;9.006;2023-12-20T03:14:30;4.55;;;3.50;;
83121;SDS011;73002;47.238;9.006;2023-12-20T03:16:55;5.03;;;3.85;;
83121;SDS011;73002;47.238;9.006;2023-12-20T03:19:21;4.85;;;3.70;;
83121;SDS011;73002;47.238;9.006;2023-12-20T03:21:46;5.75;;;4.22;;
83121;SDS011;73002;47.238;9.006;2023-12-20T03:24:12;5.38;;;4.07;;
83121;SDS011;73002;47.238;9.006;2023-12-20T03:26:37;6.03;;;4.10;;
83121;SDS011;73002;47.238;9.006;2023-12-20T03:29:03;5.47;;;4.25;;
83121;SDS011;73002;47.238;9.006;2023-12-20T03:31:28;6.40;;;4.50;;
83121;SDS011;73002;47.238;9.006;2023-12-20T03:33:53;5.78;;;4.50;;
83121;SDS011;73002;47.238;9.006;2023-12-20T03:36:19;5.95;;;4.75;;
83121;SDS011;73002;47.238;9.006;2023-12-20T03:38:45;6.30;;;4.60;;
83121;SDS011;73002;47.238;9.006;2023-12-20T03:41:11;6.68;;;5.20;;
83121;SDS011;73002;47.238;9.006;2023-12-20T03:43:36;7.75;;;5.05;;
83121;SDS011;73002;47.238;9.006;2023-12-20T03:46:02;7.15;;;5.30;;
83121;SDS011;73002;47.238;9.006;2023-12-20T03:48:29;6.90;;;5.43;;
83121;SDS011;73002;47.238;9.006;2023-12-20T03:50:55;7.65;;;5.70;;
83121;SDS011;73002;47.238;9.006;2023-12-20T03:53:21;8.43;;;6.30;;
83121;SDS011;73002;47.238;9.006;2023-12-20T03:55:47;7.20;;;5.78;;
83121;SDS011;73002;47.238;9.006;2023-12-20T03:58:12;7.35;;;5.28;;
83121;SDS011;73002;47.238;9.006;2023-12-20T04:00:38;7.95;;;5.50;;
83121;SDS011;73002;47.238;9.006;2023-12-20T04:03:05;8.18;;;6.00;;
83121;SDS011;73002;47.238;9.006;2023-12-20T04:05:30;10.10;;;5.65;;
83121;SDS011;73002;47.238;9.006;2023-12-20T04:07:56;8.98;;;6.45;;
83121;SDS011;73002;47.238;9.006;2023-12-20T04:10:21;7.85;;;6.03;;
83121;SDS011;73002;47.238;9.006;2023-12-20T04:12:46;10.13;;;6.63;;
83121;SDS011;73002;47.238;9.006;2023-12-20T04:15:12;8.98;;;6.72;;
83121;SDS011;73002;47.238;9.006;2023-12-20T04:17:37;11.38;;;7.28;;
83121;SDS011;73002;47.238;9.006;2023-12-20T04:20:03;11.65;;;7.78;;
83121;SDS011;73002;47.238;9.006;2023-12-20T04:22:29;9.85;;;7.60;;
83121;SDS011;73002;47.238;9.006;2023-12-20T04:24:54;11.15;;;7.60;;
83121;SDS011;73002;47.238;9.006;2023-12-20T04:27:20;9.15;;;6.50;;
83121;SDS011;73002;47.238;9.006;2023-12-20T04:29:46;10.25;;;7.25;;
83121;SDS011;73002;47.238;9.006;2023-12-20T04:32:11;10.73;;;7.75;;
83121;SDS011;73002;47.238;9.006;2023-12-20T04:34:37;10.50;;;6.78;;
83121;SDS011;73002;47.238;9.006;2023-12-20T04:37:02;9.60;;;6.50;;
83121;SDS011;73002;47.238;9.006;2023-12-20T04:39:28;10.40;;;7.55;;
83121;SDS011;73002;47.238;9.006;2023-12-20T04:41:53;13.63;;;7.88;;
83121;SDS011;73002;47.238;9.006;2023-12-20T04:44:19;8.82;;;6.85;;
83121;SDS011;73002;47.238;9.006;2023-12-20T04:46:44;10.13;;;7.05;;
83121;SDS011;73002;47.238;9.006;2023-12-20T04:49:10;10.82;;;7.85;;
83121;SDS011;73002;47.238;9.006;2023-12-20T04:51:35;9.35;;;6.85;;
83121;SDS011;73002;47.238;9.006;2023-12-20T04:54:01;9.52;;;6.82;;
83121;SDS011;73002;47.238;9.006;2023-12-20T04:56:27;9.77;;;6.63;;
83121;SDS011;73002;47.238;9.006;2023-12-20T04:58:53;9.55;;;6.90;;
83121;SDS011;73002;47.238;9.006;2023-12-20T05:01:18;10.77;;;7.28;;
83121;SDS011;73002;47.238;9.006;2023-12-20T05:03:44;8.93;;;6.82;;
83121;SDS011;73002;47.238;9.006;2023-12-20T05:06:10;10.77;;;7.22;;
83121;SDS011;73002;47.238;9.006;2023-12-20T05:08:35;10.00;;;7.35;;
83121;SDS011;73002;47.238;9.006;2023-12-20T05:11:01;11.90;;;7.90;;
83121;SDS011;73002;47.238;9.006;2023-12-20T05:13:28;10.75;;;7.70;;
83121;SDS011;73002;47.238;9.006;2023-12-20T05:15:53;10.55;;;7.65;;
83121;SDS011;73002;47.238;9.006;2023-12-20T05:18:20;11.73;;;8.93;;
83121;SDS011;73002;47.238;9.006;2023-12-20T05:20:45;13.60;;;9.30;;
83121;SDS011;73002;47.238;9.006;2023-12-20T05:23:11;12.93;;;8.70;;
83121;SDS011;73002;47.238;9.006;2023-12-20T05:25:38;16.17;;;10.35;;
83121;SDS011;73002;47.238;9.006;2023-12-20T05:28:04;13.65;;;9.45;;
83121;SDS011;73002;47.238;9.006;2023-12-20T05:30:29;18.25;;;11.38;;
83121;SDS011;73002;47.238;9.006;2023-12-20T05:32:55;14.48;;;9.80;;
83121;SDS011;73002;47.238;9.006;2023-12-20T05:35:20;19.77;;;11.70;;
83121;SDS011;73002;47.238;9.006;2023-12-20T05:37:47;19.45;;;11.85;;
83121;SDS011;73002;47.238;9.006;2023-12-20T05:40:14;15.20;;;10.43;;
83121;SDS011;73002;47.238;9.006;2023-12-20T05:42:39;19.50;;;11.40;;
83121;SDS011;73002;47.238;9.006;2023-12-20T05:45:05;17.58;;;11.25;;
83121;SDS011;73002;47.238;9.006;2023-12-20T05:47:31;17.77;;;10.95;;
83121;SDS011;73002;47.238;9.006;2023-12-20T05:49:56;16.63;;;11.77;;
83121;SDS011;73002;47.238;9.006;2023-12-20T05:52:22;19.38;;;12.55;;
83121;SDS011;73002;47.238;9.006;2023-12-20T05:54:49;17.85;;;12.10;;
83121;SDS011;73002;47.238;9.006;2023-12-20T05:57:15;20.10;;;13.32;;
83121;SDS011;73002;47.238;9.006;2023-12-20T05:59:40;20.40;;;13.05;;
83121;SDS011;73002;47.238;9.006;2023-12-20T06:02:06;17.60;;;11.65;;
83121;SDS011;73002;47.238;9.006;2023-12-20T06:04:32;18.30;;;11.35;;
83121;SDS011;73002;47.238;9.006;2023-12-20T06:06:57;19.65;;;11.75;;
83121;SDS011;73002;47.238;9.006;2023-12-20T06:09:23;19.42;;;12.25;;
83121;SDS011;73002;47.238;9.006;2023-12-20T06:11:49;18.83;;;12.55;;
83121;SDS011;73002;47.238;9.006;2023-12-20T06:14:15;16.40;;;11.30;;
83121;SDS011;73002;47.238;9.006;2023-12-20T06:16:41;16.52;;;11.20;;
83121;SDS011;73002;47.238;9.006;2023-12-20T06:19:06;17.30;;;11.05;;
83121;SDS011;73002;47.238;9.006;2023-12-20T06:21:32;13.23;;;8.75;;
83121;SDS011;73002;47.238;9.006;2023-12-20T06:24:00;10.55;;;7.88;;
83121;SDS011;73002;47.238;9.006;2023-12-20T06:26:25;12.95;;;8.98;;
83121;SDS011;73002;47.238;9.006;2023-12-20T06:28:50;12.65;;;9.43;;
83121;SDS011;73002;47.238;9.006;2023-12-20T06:31:16;10.75;;;8.15;;
83121;SDS011;73002;47.238;9.006;2023-12-20T06:33:42;12.23;;;8.77;;
83121;SDS011;73002;47.238;9.006;2023-12-20T06:36:11;12.43;;;8.68;;
83121;SDS011;73002;47.238;9.006;2023-12-20T06:38:38;11.95;;;7.60;;
83121;SDS011;73002;47.238;9.006;2023-12-20T06:41:03;8.65;;;6.55;;
83121;SDS011;73002;47.238;9.006;2023-12-20T06:43:29;7.90;;;5.90;;
83121;SDS011;73002;47.238;9.006;2023-12-20T06:45:56;7.22;;;5.95;;
83121;SDS011;73002;47.238;9.006;2023-12-20T06:48:21;7.35;;;5.43;;
83121;SDS011;73002;47.238;9.006;2023-12-20T06:50:47;6.18;;;5.20;;
83121;SDS011;73002;47.238;9.006;2023-12-20T06:53:14;9.43;;;6.80;;
83121;SDS011;73002;47.238;9.006;2023-12-20T06:55:39;7.93;;;5.75;;
83121;SDS011;73002;47.238;9.006;2023-12-20T06:58:05;7.97;;;5.72;;
83121;SDS011;73002;47.238;9.006;2023-12-20T07:00:31;8.15;;;6.13;;
83121;SDS011;73002;47.238;9.006;2023-12-20T07:02:57;8.77;;;7.07;;
83121;SDS011;73002;47.238;9.006;2023-12-20T07:05:23;8.45;;;6.00;;
83121;SDS011;73002;47.238;9.006;2023-12-20T07:07:49;9.05;;;6.32;;
83121;SDS011;73002;47.238;9.006;2023-12-20T07:10:15;8.23;;;6.10;;
83121;SDS011;73002;47.238;9.006;2023-12-20T07:12:40;9.48;;;6.82;;
83121;SDS011;73002;47.238;9.006;2023-12-20T07:15:06;9.30;;;6.63;;
83121;SDS011;73002;47.238;9.006;2023-12-20T07:17:32;7.90;;;5.57;;
83121;SDS011;73002;47.238;9.006;2023-12-20T07:19:59;8.15;;;5.70;;
83121;SDS011;73002;47.238;9.006;2023-12-20T07:22:29;9.15;;;6.00;;
83121;SDS011;73002;47.238;9.006;2023-12-20T07:24:57;7.57;;;5.90;;
83121;SDS011;73002;47.238;9.006;2023-12-20T07:27:23;8.50;;;5.90;;
83121;SDS011;73002;47.238;9.006;2023-12-20T07:29:49;6.90;;;5.22;;
83121;SDS011;73002;47.238;9.006;2023-12-20T07:32:14;7.85;;;5.28;;
83121;SDS011;73002;47.238;9.006;2023-12-20T07:34:40;6.63;;;4.82;;
83121;SDS011;73002;47.238;9.006;2023-12-20T07:37:05;7.63;;;5.65;;
83121;SDS011;73002;47.238;9.006;2023-12-20T07:39:31;6.40;;;4.90;;
83121;SDS011;73002;47.238;9.006;2023-12-20T07:41:56;6.75;;;4.72;;
83121;SDS011;73002;47.238;9.006;2023-12-20T07:44:22;8.85;;;7.03;;
83121;SDS011;73002;47.238;9.006;2023-12-20T07:46:47;5.70;;;4.60;;
83121;SDS011;73002;47.238;9.006;2023-12-20T07:49:15;6.75;;;5.00;;
83121;SDS011;73002;47.238;9.006;2023-12-20T07:51:40;8.73;;;6.22;;
83121;SDS011;73002;47.238;9.006;2023-12-20T07:54:05;9.07;;;6.53;;
83121;SDS011;73002;47.238;9.006;2023-12-20T07:56:33;21.60;;;13.45;;
83121;SDS011;73002;47.238;9.006;2023-12-20T07:58:58;20.40;;;13.15;;
83121;SDS011;73002;47.238;9.006;2023-12-20T08:01:24;11.23;;;7.22;;
83121;SDS011;73002;47.238;9.006;2023-12-20T08:03:49;33.22;;;19.77;;
83121;SDS011;73002;47.238;9.006;2023-12-20T08:06:15;16.55;;;10.00;;
83121;SDS011;73002;47.238;9.006;2023-12-20T08:08:42;12.32;;;7.45;;
83121;SDS011;73002;47.238;9.006;2023-12-20T08:11:07;9.02;;;6.15;;
83121;SDS011;73002;47.238;9.006;2023-12-20T08:13:33;19.52;;;11.18;;
83121;SDS011;73002;47.238;9.006;2023-12-20T08:15:58;23.90;;;13.10;;
83121;SDS011;73002;47.238;9.006;2023-12-20T08:18:24;30.77;;;16.42;;
83121;SDS011;73002;47.238;9.006;2023-12-20T08:20:49;45.13;;;21.48;;
83121;SDS011;73002;47.238;9.006;2023-12-20T08:23:17;93.75;;;41.35;;
83121;SDS011;73002;47.238;9.006;2023-12-20T08:25:43;170.45;;;68.40;;
83121;SDS011;73002;47.238;9.006;2023-12-20T08:28:08;284.92;;;125.55;;
83121;SDS011;73002;47.238;9.006;2023-12-20T08:30:34;213.55;;;102.55;;
83121;SDS011;73002;47.238;9.006;2023-12-20T08:33:00;107.75;;;53.35;;
83121;SDS011;73002;47.238;9.006;2023-12-20T08:35:26;23.42;;;13.15;;
83121;SDS011;73002;47.238;9.006;2023-12-20T08:37:52;12.82;;;8.02;;
83121;SDS011;73002;47.238;9.006;2023-12-20T08:40:18;7.93;;;5.50;;
83121;SDS011;73002;47.238;9.006;2023-12-20T08:42:43;7.20;;;4.85;;
83121;SDS011;73002;47.238;9.006;2023-12-20T08:45:09;5.65;;;4.05;;
83121;SDS011;73002;47.238;9.006;2023-12-20T08:47:35;4.32;;;2.85;;
83121;SDS011;73002;47.238;9.006;2023-12-20T08:50:00;4.03;;;2.80;;
83121;SDS011;73002;47.238;9.006;2023-12-20T08:52:26;4.82;;;2.47;;
83121;SDS011;73002;47.238;9.006;2023-12-20T08:54:52;5.25;;;2.90;;
83121;SDS011;73002;47.238;9.006;2023-12-20T08:57:22;9.45;;;6.68;;
83121;SDS011;73002;47.238;9.006;2023-12-20T08:59:49;27.85;;;15.70;;
83121;SDS011;73002;47.238;9.006;2023-12-20T09:02:15;17.25;;;10.45;;
83121;SDS011;73002;47.238;9.006;2023-12-20T09:04:43;3.65;;;2.78;;
83121;SDS011;73002;47.238;9.006;2023-12-20T09:07:24;3.78;;;3.15;;
83121;SDS011;73002;47.238;9.006;2023-12-20T09:09:55;3.00;;;1.90;;
83121;SDS011;73002;47.238;9.006;2023-12-20T09:12:20;3.53;;;2.40;;
83121;SDS011;73002;47.238;9.006;2023-12-20T10:40:38;5.57;;;4.20;;
83121;SDS011;73002;47.238;9.006;2023-12-20T10:43:04;6.95;;;4.50;;
83121;SDS011;73002;47.238;9.006;2023-12-20T10:45:33;4.95;;;3.50;;
83121;SDS011;73002;47.238;9.006;2023-12-20T10:47:59;5.22;;;3.22;;
83121;SDS011;73002;47.238;9.006;2023-12-20T10:50:26;4.88;;;3.33;;
83121;SDS011;73002;47.238;9.006;2023-12-20T11:07:57;6.38;;;4.97;;
83121;SDS011;73002;47.238;9.006;2023-12-20T11:10:30;64.97;;;11.15;;
83121;SDS011;73002;47.238;9.006;2023-12-20T11:13:06;37.80;;;11.23;;
83121;SDS011;73002;47.238;9.006;2023-12-20T11:15:37;19.30;;;10.13;;
83121;SDS011;73002;47.238;9.006;2023-12-20T11:18:05;38.15;;;12.35;;
83121;SDS011;73002;47.238;9.006;2023-12-20T11:20:35;16.52;;;10.30;;
83121;SDS011;73002;47.238;9.006;2023-12-20T11:23:05;18.05;;;11.20;;
83121;SDS011;73002;47.238;9.006;2023-12-20T11:25:36;11.77;;;7.97;;
83121;SDS011;73002;47.238;9.006;2023-12-20T11:28:12;16.38;;;10.18;;
83121;SDS011;73002;47.238;9.006;2023-12-20T11:33:16;14.63;;;9.15;;
83121;SDS011;73002;47.238;9.006;2023-12-20T11:35:42;10.82;;;7.97;;
83121;SDS011;73002;47.238;9.006;2023-12-20T11:38:10;14.25;;;9.00;;
83121;SDS011;73002;47.238;9.006;2023-12-20T11:40:35;10.95;;;7.90;;
83121;SDS011;73002;47.238;9.006;2023-12-20T11:43:02;13.02;;;8.50;;
83121;SDS011;73002;47.238;9.006;2023-12-20T11:45:29;13.43;;;9.68;;
83121;SDS011;73002;47.238;9.006;2023-12-20T11:47:56;11.98;;;8.38;;
83121;SDS011;73002;47.238;9.006;2023-12-20T11:50:22;12.32;;;8.40;;
83121;SDS011;73002;47.238;9.006;2023-12-20T11:52:48;11.70;;;8.30;;
83121;SDS011;73002;47.238;9.006;2023-12-20T11:55:14;11.57;;;7.68;;
83121;SDS011;73002;47.238;9.006;2023-12-20T11:57:42;11.48;;;8.10;;
83121;SDS011;73002;47.238;9.006;2023-12-20T12:00:08;13.82;;;8.38;;
83121;SDS011;73002;47.238;9.006;2023-12-20T12:02:38;12.70;;;7.73;;
83121;SDS011;73002;47.238;9.006;2023-12-20T12:05:03;11.63;;;7.93;;
83121;SDS011;73002;47.238;9.006;2023-12-20T12:07:30;9.52;;;7.03;;
83121;SDS011;73002;47.238;9.006;2023-12-20T12:09:56;10.05;;;6.78;;
83121;SDS011;73002;47.238;9.006;2023-12-20T12:12:22;12.85;;;8.32;;
83121;SDS011;73002;47.238;9.006;2023-12-20T12:14:50;12.00;;;8.60;;
83121;SDS011;73002;47.238;9.006;2023-12-20T12:17:15;13.85;;;8.73;;
83121;SDS011;73002;47.238;9.006;2023-12-20T12:19:41;12.68;;;8.25;;
83121;SDS011;73002;47.238;9.006;2023-12-20T12:22:08;13.25;;;8.82;;
83121;SDS011;73002;47.238;9.006;2023-12-20T12:24:42;11.80;;;8.55;;
83121;SDS011;73002;47.238;9.006;2023-12-20T12:27:09;11.32;;;7.93;;
83121;SDS011;73002;47.238;9.006;2023-12-20T12:29:35;13.05;;;8.70;;
83121;SDS011;73002;47.238;9.006;2023-12-20T12:32:04;11.95;;;8.10;;
83121;SDS011;73002;47.238;9.006;2023-12-20T12:34:33;11.15;;;7.88;;
83121;SDS011;73002;47.238;9.006;2023-12-20T12:37:00;11.88;;;8.35;;
83121;SDS011;73002;47.238;9.006;2023-12-20T12:39:25;13.07;;;8.88;;
83121;SDS011;73002;47.238;9.006;2023-12-20T12:41:53;14.55;;;9.55;;
83121;SDS011;73002;47.238;9.006;2023-12-20T12:44:19;14.52;;;9.93;;
83121;SDS011;73002;47.238;9.006;2023-12-20T12:46:45;11.80;;;8.85;;
83121;SDS011;73002;47.238;9.006;2023-12-20T12:49:12;15.00;;;10.27;;
83121;SDS011;73002;47.238;9.006;2023-12-20T12:51:37;16.83;;;10.25;;
83121;SDS011;73002;47.238;9.006;2023-12-20T12:54:05;11.45;;;7.72;;
83121;SDS011;73002;47.238;9.006;2023-12-20T12:56:31;7.35;;;5.78;;
83121;SDS011;73002;47.238;9.006;2023-12-20T12:58:56;6.03;;;5.10;;
83121;SDS011;73002;47.238;9.006;2023-12-20T13:01:24;5.63;;;4.45;;
83121;SDS011;73002;47.238;9.006;2023-12-20T13:03:51;7.32;;;5.32;;
83121;SDS011;73002;47.238;9.006;2023-12-20T13:06:16;6.97;;;5.30;;
83121;SDS011;73002;47.238;9.006;2023-12-20T13:08:42;8.45;;;6.10;;
83121;SDS011;73002;47.238;9.006;2023-12-20T13:11:09;7.82;;;5.70;;
83121;SDS011;73002;47.238;9.006;2023-12-20T13:13:34;8.93;;;6.30;;
83121;SDS011;73002;47.238;9.006;2023-12-20T13:16:00;9.38;;;6.72;;
83121;SDS011;73002;47.238;9.006;2023-12-20T13:18:26;10.63;;;6.95;;
83121;SDS011;73002;47.238;9.006;2023-12-20T13:20:51;13.80;;;8.27;;
83121;SDS011;73002;47.238;9.006;2023-12-20T13:23:17;12.35;;;8.10;;
83121;SDS011;73002;47.238;9.006;2023-12-20T13:25:45;9.75;;;7.47;;
83121;SDS011;73002;47.238;9.006;2023-12-20T13:28:13;21.08;;;14.52;;
83121;SDS011;73002;47.238;9.006;2023-12-20T13:30:39;33.60;;;20.42;;
83121;SDS011;73002;47.238;9.006;2023-12-20T13:33:05;10.40;;;7.85;;
83121;SDS011;73002;47.238;9.006;2023-12-20T13:35:32;12.85;;;8.88;;
83121;SDS011;73002;47.238;9.006;2023-12-20T13:37:59;13.07;;;9.77;;
83121;SDS011;73002;47.238;9.006;2023-12-20T13:40:25;5.60;;;4.93;;
83121;SDS011;73002;47.238;9.006;2023-12-20T13:42:51;4.53;;;3.80;;
83121;SDS011;73002;47.238;9.006;2023-12-20T13:45:16;3.67;;;3.08;;
83121;SDS011;73002;47.238;9.006;2023-12-20T13:47:41;5.25;;;3.70;;
83121;SDS011;73002;47.238;9.006;2023-12-20T13:50:07;4.05;;;3.65;;
83121;SDS011;73002;47.238;9.006;2023-12-20T13:52:32;3.50;;;3.20;;
83121;SDS011;73002;47.238;9.006;2023-12-20T13:54:58;4.38;;;3.88;;
83121;SDS011;73002;47.238;9.006;2023-12-20T13:57:23;4.25;;;3.72;;
83121;SDS011;73002;47.238;9.006;2023-12-20T13:59:49;4.30;;;3.83;;
83121;SDS011;73002;47.238;9.006;2023-12-20T14:02:14;4.68;;;4.10;;
83121;SDS011;73002;47.238;9.006;2023-12-20T14:04:41;5.57;;;4.40;;
83121;SDS011;73002;47.238;9.006;2023-12-20T14:07:07;5.18;;;3.78;;
83121;SDS011;73002;47.238;9.006;2023-12-20T14:09:33;6.15;;;4.50;;
83121;SDS011;73002;47.238;9.006;2023-12-20T14:11:58;8.00;;;4.93;;
83121;SDS011;73002;47.238;9.006;2023-12-20T14:14:26;7.38;;;4.80;;
83121;SDS011;73002;47.238;9.006;2023-12-20T14:16:53;5.70;;;4.40;;
83121;SDS011;73002;47.238;9.006;2023-12-20T14:19:18;6.05;;;5.00;;
83121;SDS011;73002;47.238;9.006;2023-12-20T14:21:44;6.80;;;5.15;;
83121;SDS011;73002;47.238;9.006;2023-12-20T14:24:11;6.15;;;4.43;;
83121;SDS011;73002;47.238;9.006;2023-12-20T14:26:42;6.68;;;4.55;;
83121;SDS011;73002;47.238;9.006;2023-12-20T14:29:08;6.13;;;4.00;;
83121;SDS011;73002;47.238;9.006;2023-12-20T14:31:34;4.57;;;3.20;;
83121;SDS011;73002;47.238;9.006;2023-12-20T14:33:59;3.38;;;2.85;;
83121;SDS011;73002;47.238;9.006;2023-12-20T14:36:28;3.13;;;2.80;;
83121;SDS011;73002;47.238;9.006;2023-12-20T14:38:57;4.32;;;2.67;;
83121;SDS011;73002;47.238;9.006;2023-12-20T14:41:22;3.63;;;2.78;;
83121;SDS011;73002;47.238;9.006;2023-12-20T14:43:49;4.30;;;2.80;;
83121;SDS011;73002;47.238;9.006;2023-12-20T14:46:17;3.85;;;2.72;;
83121;SDS011;73002;47.238;9.006;2023-12-20T14:48:42;3.85;;;2.50;;
83121;SDS011;73002;47.238;9.006;2023-12-20T14:51:08;3.88;;;2.88;;
83121;SDS011;73002;47.238;9.006;2023-12-20T14:53:33;4.82;;;2.50;;
83121;SDS011;73002;47.238;9.006;2023-12-20T14:56:02;3.47;;;2.20;;
83121;SDS011;73002;47.238;9.006;2023-12-20T14:58:28;5.00;;;2.70;;
83121;SDS011;73002;47.238;9.006;2023-12-20T15:00:54;2.63;;;2.42;;
83121;SDS011;73002;47.238;9.006;2023-12-20T15:03:21;4.95;;;2.42;;
83121;SDS011;73002;47.238;9.006;2023-12-20T15:05:46;5.18;;;2.40;;
83121;SDS011;73002;47.238;9.006;2023-12-20T15:08:15;2.45;;;2.20;;
83121;SDS011;73002;47.238;9.006;2023-12-20T15:10:41;3.60;;;2.22;;
83121;SDS011;73002;47.238;9.006;2023-12-20T15:13:08;4.63;;;2.40;;
83121;SDS011;73002;47.238;9.006;2023-12-20T15:15:33;3.55;;;2.38;;
83121;SDS011;73002;47.238;9.006;2023-12-20T15:18:00;4.43;;;2.40;;
83121;SDS011;73002;47.238;9.006;2023-12-20T15:20:25;4.35;;;2.42;;
83121;SDS011;73002;47.238;9.006;2023-12-20T15:22:51;5.38;;;2.53;;
83121;SDS011;73002;47.238;9.006;2023-12-20T15:25:16;5.47;;;2.45;;
83121;SDS011;73002;47.238;9.006;2023-12-20T15:27:47;3.72;;;2.42;;
83121;SDS011;73002;47.238;9.006;2023-12-20T15:32:43;3.17;;;2.25;;
83121;SDS011;73002;47.238;9.006;2023-12-20T15:35:09;3.28;;;1.90;;
83121;SDS011;73002;47.238;9.006;2023-12-20T15:37:34;3.03;;;1.83;;
83121;SDS011;73002;47.238;9.006;2023-12-20T15:40:00;4.78;;;2.17;;
83121;SDS011;73002;47.238;9.006;2023-12-20T15:42:25;6.10;;;1.98;;
83121;SDS011;73002;47.238;9.006;2023-12-20T15:44:51;4.38;;;2.00;;
83121;SDS011;73002;47.238;9.006;2023-12-20T15:47:16;3.25;;;2.00;;
83121;SDS011;73002;47.238;9.006;2023-12-20T15:49:42;3.80;;;2.30;;
83121;SDS011;73002;47.238;9.006;2023-12-20T15:52:07;4.72;;;2.33;;
83121;SDS011;73002;47.238;9.006;2023-12-20T15:54:33;3.38;;;2.35;;
83121;SDS011;73002;47.238;9.006;2023-12-20T15:56:58;4.28;;;2.10;;
83121;SDS011;73002;47.238;9.006;2023-12-20T15:59:24;4.07;;;2.20;;
83121;SDS011;73002;47.238;9.006;2023-12-20T16:01:49;3.20;;;1.83;;
83121;SDS011;73002;47.238;9.006;2023-12-20T16:04:15;4.80;;;1.98;;
83121;SDS011;73002;47.238;9.006;2023-12-20T16:06:40;3.85;;;2.05;;
83121;SDS011;73002;47.238;9.006;2023-12-20T16:09:06;3.38;;;2.33;;
83121;SDS011;73002;47.238;9.006;2023-12-20T16:11:32;2.85;;;2.10;;
83121;SDS011;73002;47.238;9.006;2023-12-20T16:13:57;3.78;;;2.17;;
83121;SDS011;73002;47.238;9.006;2023-12-20T16:16:23;5.15;;;2.40;;
83121;SDS011;73002;47.238;9.006;2023-12-20T16:18:48;4.10;;;2.42;;